createdAt,value
2022-11-07T00:01:42.029Z,0.65
2022-11-07T00:04:08.827Z,1.20
2022-11-07T00:06:37.483Z,1.50
2022-11-07T00:09:04.904Z,1.00
2022-11-07T00:11:31.741Z,0.95
2022-11-07T00:13:58.499Z,0.80
2022-11-07T00:16:26.609Z,1.10
2022-11-07T00:18:53.378Z,0.73
2022-11-07T00:21:20.064Z,1.10
2022-11-07T00:23:47.360Z,0.82
2022-11-07T00:26:15.061Z,0.50
2022-11-07T00:28:43.652Z,1.08
2022-11-07T00:31:12.695Z,1.23
2022-11-07T00:33:40.521Z,1.23
2022-11-07T00:36:08.549Z,1.23
2022-11-07T00:38:35.475Z,0.88
2022-11-07T00:41:04.387Z,0.80
2022-11-07T00:43:32.030Z,0.98
2022-11-07T00:46:01.781Z,0.75
2022-11-07T00:48:29.473Z,1.23
2022-11-07T00:50:56.264Z,1.05
2022-11-07T00:53:25.567Z,0.70
2022-11-07T00:55:52.342Z,1.15
2022-11-07T00:58:19.113Z,1.25
2022-11-07T01:00:45.848Z,1.10
2022-11-07T01:03:30.999Z,1.15
2022-11-07T01:06:03.685Z,0.65
2022-11-07T01:08:31.253Z,1.08
2022-11-07T01:10:59.321Z,0.90
2022-11-07T01:13:26.242Z,0.82
2022-11-07T01:15:54.025Z,0.52
2022-11-07T01:18:20.790Z,0.90
2022-11-07T01:20:49.483Z,0.80
2022-11-07T01:23:20.868Z,0.90
2022-11-07T01:25:47.582Z,0.55
2022-11-07T01:28:14.386Z,0.70
2022-11-07T01:30:42.935Z,0.60
2022-11-07T01:33:10.613Z,0.95
2022-11-07T01:35:37.686Z,0.60
2022-11-07T01:38:05.524Z,0.88
2022-11-07T01:40:52.347Z,1.02
2022-11-07T01:43:19.083Z,0.73
2022-11-07T01:45:45.792Z,0.70
2022-11-07T01:48:12.776Z,0.90
2022-11-07T01:50:41.702Z,1.10
2022-11-07T01:53:08.424Z,0.60
2022-11-07T01:55:35.909Z,0.90
2022-11-07T01:58:08.517Z,0.93
2022-11-07T02:00:36.953Z,0.88
2022-11-07T02:03:09.405Z,0.93
2022-11-07T02:05:46.893Z,1.00
2022-11-07T02:08:15.584Z,0.98
2022-11-07T02:10:43.809Z,1.00
2022-11-07T02:13:16.642Z,0.80
2022-11-07T02:15:43.746Z,0.65
2022-11-07T02:18:11.060Z,0.98
2022-11-07T02:20:37.943Z,1.05
2022-11-07T02:23:11.860Z,0.60
2022-11-07T02:25:38.975Z,0.95
2022-11-07T02:28:08.940Z,0.70
2022-11-07T02:30:35.986Z,0.73
2022-11-07T02:33:03.288Z,0.70
2022-11-07T02:35:45.956Z,0.70
2022-11-07T02:38:48.815Z,0.80
2022-11-07T02:41:21.297Z,0.90
2022-11-07T02:44:18.657Z,1.05
2022-11-07T02:49:12.701Z,0.90
2022-11-07T02:51:39.484Z,0.80
2022-11-07T02:54:06.252Z,0.65
2022-11-07T02:56:33.009Z,1.02
2022-11-07T02:58:59.784Z,1.05
2022-11-07T03:01:26.603Z,0.63
2022-11-07T03:03:53.445Z,0.80
2022-11-07T03:06:23.297Z,0.90
2022-11-07T03:08:50.804Z,0.75
2022-11-07T03:11:20.759Z,0.93
2022-11-07T03:13:48.634Z,0.90
2022-11-07T03:16:16.696Z,0.95
2022-11-07T03:18:43.425Z,0.57
2022-11-07T03:21:10.312Z,0.95
2022-11-07T03:23:37.199Z,1.20
2022-11-07T03:26:04.692Z,0.52
2022-11-07T03:28:31.739Z,0.80
2022-11-07T03:31:03.167Z,1.02
2022-11-07T03:33:30.840Z,0.88
2022-11-07T03:35:57.547Z,1.17
2022-11-07T03:38:24.320Z,0.73
2022-11-07T03:40:51.098Z,1.13
2022-11-07T03:43:18.073Z,1.30
2022-11-07T03:45:44.812Z,0.98
2022-11-07T03:48:11.580Z,0.73
2022-11-07T03:50:38.270Z,1.10
2022-11-07T03:53:05.009Z,0.98
2022-11-07T03:55:31.767Z,0.90
2022-11-07T03:57:58.455Z,0.82
2022-11-07T04:00:25.223Z,1.08
2022-11-07T04:02:52.155Z,1.17
2022-11-07T04:05:19.012Z,0.68
2022-11-07T04:07:45.713Z,1.05
2022-11-07T04:10:12.482Z,0.93
2022-11-07T04:12:57.598Z,0.98
2022-11-07T04:15:42.891Z,0.98
2022-11-07T04:18:09.680Z,0.93
2022-11-07T04:20:36.385Z,1.10
2022-11-07T04:23:03.094Z,1.10
2022-11-07T04:25:48.244Z,1.23
2022-11-07T04:28:17.728Z,1.02
2022-11-07T04:30:44.444Z,1.15
2022-11-07T04:33:11.325Z,0.77
2022-11-07T04:35:38.126Z,0.80
2022-11-07T04:38:04.863Z,1.10
2022-11-07T04:40:31.563Z,0.85
2022-11-07T04:42:58.346Z,1.20
2022-11-07T04:45:25.268Z,0.90
2022-11-07T04:47:52.073Z,0.70
2022-11-07T04:50:20.410Z,0.95
2022-11-07T04:52:48.016Z,0.70
2022-11-07T04:55:24.280Z,0.85
2022-11-07T04:57:51.091Z,0.82
2022-11-07T05:00:19.212Z,0.80
2022-11-07T05:02:46.948Z,0.90
2022-11-07T05:05:13.808Z,0.63
2022-11-07T05:07:41.391Z,1.00
2022-11-07T05:10:14.679Z,1.08
2022-11-07T05:12:41.351Z,1.05
2022-11-07T05:15:08.446Z,1.08
2022-11-07T05:17:35.247Z,1.02
2022-11-07T05:20:01.946Z,0.68
2022-11-07T05:22:49.256Z,0.85
2022-11-07T05:25:19.165Z,0.80
2022-11-07T05:27:45.956Z,0.82
2022-11-07T05:30:13.099Z,1.17
2022-11-07T05:32:41.261Z,0.75
2022-11-07T05:35:08.297Z,1.17
2022-11-07T05:37:35.004Z,0.90
2022-11-07T05:40:01.707Z,1.05
2022-11-07T05:42:28.515Z,1.20
2022-11-07T05:44:55.279Z,0.98
2022-11-07T05:47:21.983Z,1.00
2022-11-07T05:49:48.698Z,0.80
2022-11-07T05:52:15.480Z,0.70
2022-11-07T05:54:42.188Z,1.17
2022-11-07T05:57:08.882Z,1.50
2022-11-07T05:59:35.596Z,1.25
2022-11-07T06:02:02.477Z,1.23
2022-11-07T06:04:29.309Z,0.82
2022-11-07T06:06:55.978Z,1.35
2022-11-07T06:09:22.669Z,1.33
2022-11-07T06:11:49.463Z,0.88
2022-11-07T06:14:16.659Z,1.20
2022-11-07T06:16:43.339Z,1.00
2022-11-07T06:19:10.063Z,0.98
2022-11-07T06:21:36.754Z,1.20
2022-11-07T06:24:03.667Z,1.30
2022-11-07T06:26:30.391Z,1.00
2022-11-07T06:28:57.098Z,1.20
2022-11-07T06:31:23.874Z,1.15
2022-11-07T06:33:51.329Z,1.10
2022-11-07T06:36:18.688Z,1.05
2022-11-07T06:38:45.465Z,1.02
2022-11-07T06:41:13.962Z,0.93
2022-11-07T06:43:41.094Z,0.98
2022-11-07T06:46:11.491Z,0.90
2022-11-07T06:48:38.860Z,1.25
2022-11-07T06:51:07.063Z,1.33
2022-11-07T06:53:34.098Z,0.65
2022-11-07T06:56:02.016Z,1.10
2022-11-07T06:58:28.812Z,1.13
2022-11-07T07:01:03.990Z,1.00
2022-11-07T07:03:31.097Z,1.48
2022-11-07T07:06:05.732Z,1.80
2022-11-07T07:08:33.511Z,1.45
2022-11-07T07:11:04.476Z,1.27
2022-11-07T07:13:31.350Z,0.60
2022-11-07T07:15:59.093Z,1.25
2022-11-07T07:18:27.233Z,0.98
2022-11-07T07:21:02.599Z,1.30
2022-11-07T07:23:29.428Z,1.00
2022-11-07T07:25:56.208Z,0.85
2022-11-07T07:28:22.971Z,1.00
2022-11-07T07:30:52.007Z,1.38
2022-11-07T07:33:20.028Z,1.38
2022-11-07T07:35:46.766Z,1.00
2022-11-07T07:38:13.543Z,1.02
2022-11-07T07:40:40.253Z,0.90
2022-11-07T07:43:07.001Z,1.25
2022-11-07T07:45:33.755Z,1.00
2022-11-07T07:48:03.611Z,1.25
2022-11-07T07:50:30.613Z,0.80
2022-11-07T07:52:58.050Z,0.98
2022-11-07T07:55:25.206Z,0.90
2022-11-07T07:57:51.937Z,0.88
2022-11-07T08:00:18.899Z,0.77
2022-11-07T08:02:45.616Z,1.02
2022-11-07T08:05:14.388Z,1.05
2022-11-07T08:07:47.735Z,1.30
2022-11-07T08:10:42.544Z,0.88
2022-11-07T08:13:09.963Z,1.00
2022-11-07T08:15:36.764Z,1.00
2022-11-07T08:18:04.696Z,1.15
2022-11-07T08:20:31.900Z,0.85
2022-11-07T08:23:03.752Z,0.65
2022-11-07T08:25:30.693Z,1.17
2022-11-07T08:27:57.410Z,1.08
2022-11-07T08:30:24.483Z,1.00
2022-11-07T08:32:51.172Z,1.27
2022-11-07T08:35:18.001Z,1.13
2022-11-07T08:37:44.733Z,1.20
2022-11-07T08:40:12.064Z,0.98
2022-11-07T08:42:39.123Z,1.13
2022-11-07T08:45:06.508Z,1.20
2022-11-07T08:47:33.211Z,1.10
2022-11-07T08:50:00.033Z,0.93
2022-11-07T08:52:26.826Z,0.90
2022-11-07T08:54:53.496Z,1.20
2022-11-07T08:57:20.378Z,1.02
2022-11-07T08:59:47.105Z,1.02
2022-11-07T09:05:00.704Z,1.15
2022-11-07T09:07:27.444Z,1.20
2022-11-07T09:09:54.283Z,0.90
2022-11-07T09:12:20.959Z,0.80
2022-11-07T09:14:47.680Z,0.90
2022-11-07T09:17:14.341Z,1.05
2022-11-07T09:19:41.043Z,1.05
2022-11-07T09:22:07.745Z,1.40
2022-11-07T09:24:34.517Z,0.85
2022-11-07T09:27:01.227Z,0.88
2022-11-07T09:29:28.001Z,1.00
2022-11-07T09:31:54.796Z,1.00
2022-11-07T09:34:21.625Z,0.82
2022-11-07T09:36:48.341Z,1.00
2022-11-07T09:39:15.051Z,0.95
2022-11-07T09:42:09.776Z,0.90
2022-11-07T09:44:42.866Z,0.98
2022-11-07T09:47:17.072Z,1.02
2022-11-07T09:49:53.045Z,0.80
2022-11-07T09:52:40.989Z,0.70
2022-11-07T09:55:07.663Z,0.82
2022-11-07T09:57:35.876Z,1.20
2022-11-07T10:00:11.085Z,1.00
2022-11-07T10:02:44.956Z,0.70
2022-11-07T10:05:34.705Z,0.57
2022-11-07T10:08:16.631Z,0.80
2022-11-07T10:10:56.429Z,0.60
2022-11-07T10:13:56.743Z,0.60
2022-11-07T10:16:35.351Z,0.65
2022-11-07T10:19:28.775Z,0.60
2022-11-07T10:22:14.150Z,0.63
2022-11-07T10:24:43.975Z,0.68
2022-11-07T10:27:11.826Z,0.75
2022-11-07T10:29:52.335Z,0.70
2022-11-07T10:32:36.087Z,0.60
2022-11-07T10:35:26.090Z,0.85
2022-11-07T10:37:58.441Z,0.88
2022-11-07T10:40:33.416Z,0.75
2022-11-07T10:43:03.166Z,0.70
2022-11-07T10:45:30.924Z,0.90
2022-11-07T10:48:03.262Z,0.77
2022-11-07T10:50:30.629Z,0.70
2022-11-07T10:53:05.458Z,0.77
2022-11-07T10:55:44.067Z,0.80
2022-11-07T10:58:18.989Z,0.93
2022-11-07T11:01:02.345Z,0.68
2022-11-07T11:03:44.175Z,0.80
2022-11-07T11:06:26.977Z,0.60
2022-11-07T11:08:53.784Z,0.60
2022-11-07T11:11:32.736Z,0.70
2022-11-07T11:14:13.145Z,0.88
2022-11-07T11:16:43.605Z,0.63
2022-11-07T11:19:24.223Z,0.75
2022-11-07T11:21:52.523Z,0.90
2022-11-07T11:24:25.541Z,0.70
2022-11-07T11:26:53.683Z,0.82
2022-11-07T11:29:43.430Z,0.88
2022-11-07T11:32:17.763Z,0.77
2022-11-07T11:35:10.382Z,0.80
2022-11-07T11:37:42.646Z,0.82
2022-11-07T11:40:19.397Z,0.73
2022-11-07T11:43:22.584Z,0.90
2022-11-07T11:46:08.067Z,0.80
2022-11-07T11:48:56.679Z,1.00
2022-11-07T11:51:40.424Z,0.70
2022-11-07T11:54:12.373Z,0.90
2022-11-07T11:56:45.671Z,0.70
2022-11-07T11:59:38.535Z,0.73
2022-11-07T12:02:39.742Z,0.75
2022-11-07T12:05:21.454Z,0.77
2022-11-07T12:08:19.066Z,0.70
2022-11-07T12:11:07.375Z,0.77
2022-11-07T12:13:53.334Z,0.73
2022-11-07T12:16:30.366Z,0.80
2022-11-07T12:19:17.660Z,0.70
2022-11-07T12:21:59.685Z,0.80
2022-11-07T12:24:45.432Z,0.80
2022-11-07T12:27:26.785Z,0.98
2022-11-07T12:30:20.126Z,0.80
2022-11-07T12:33:13.297Z,0.80
2022-11-07T12:35:57.100Z,0.77
2022-11-07T12:38:51.704Z,0.80
2022-11-07T12:41:28.529Z,0.80
2022-11-07T12:44:00.951Z,0.77
2022-11-07T12:46:48.560Z,0.85
2022-11-07T12:49:18.209Z,0.88
2022-11-07T12:52:03.777Z,0.80
2022-11-07T12:54:40.015Z,1.10
2022-11-07T12:57:20.081Z,0.85
2022-11-07T13:00:06.941Z,0.98
2022-11-07T13:05:55.620Z,0.80
2022-11-07T13:08:46.669Z,0.63
2022-11-07T13:11:32.236Z,0.60
2022-11-07T13:14:04.856Z,0.70
2022-11-07T13:16:34.987Z,0.60
2022-11-07T13:19:32.255Z,0.90
2022-11-07T13:22:02.333Z,0.75
2022-11-07T13:24:30.157Z,0.80
2022-11-07T13:26:58.439Z,0.70
2022-11-07T13:29:36.997Z,1.13
2022-11-07T13:32:15.213Z,0.70
2022-11-07T13:34:49.272Z,0.63
2022-11-07T13:37:26.305Z,0.70
2022-11-07T13:40:15.452Z,0.80
2022-11-07T13:42:43.556Z,0.73
2022-11-07T13:45:27.866Z,0.60
2022-11-07T13:47:59.184Z,0.80
2022-11-07T13:50:39.203Z,0.70
2022-11-07T13:53:17.520Z,1.05
2022-11-07T13:55:51.065Z,0.70
2022-11-07T13:58:19.731Z,0.70
2022-11-07T14:00:46.515Z,0.95
2022-11-07T14:03:26.389Z,0.80
2022-11-07T14:05:54.461Z,0.80
2022-11-07T14:08:32.421Z,0.60
2022-11-07T14:11:02.152Z,0.73
2022-11-07T14:13:38.229Z,0.75
2022-11-07T14:16:27.073Z,0.80
2022-11-07T14:19:01.079Z,0.90
2022-11-07T14:21:33.429Z,0.77
2022-11-07T14:24:01.324Z,0.75
2022-11-07T14:26:38.840Z,0.80
2022-11-07T14:29:08.215Z,0.70
2022-11-07T14:31:37.700Z,0.80
2022-11-07T14:34:20.360Z,0.75
2022-11-07T14:36:52.360Z,0.60
2022-11-07T14:39:20.775Z,1.00
2022-11-07T14:41:48.190Z,1.02
2022-11-07T14:44:28.508Z,1.00
2022-11-07T14:47:04.176Z,0.80
2022-11-07T14:49:43.088Z,1.10
2022-11-07T14:52:33.131Z,0.75
2022-11-07T14:55:20.758Z,0.88
2022-11-07T14:57:48.194Z,1.00
2022-11-07T15:00:17.742Z,1.00
2022-11-07T15:02:47.963Z,0.68
2022-11-07T15:05:44.476Z,1.05
2022-11-07T15:08:30.768Z,0.80
2022-11-07T15:11:15.766Z,1.05
2022-11-07T15:13:42.739Z,0.70
2022-11-07T15:16:17.155Z,1.10
2022-11-07T15:18:46.995Z,0.90
2022-11-07T15:21:35.693Z,8.98
2022-11-07T15:24:33.922Z,4.47
2022-11-07T15:27:15.321Z,1.95
2022-11-07T15:29:57.254Z,2.13
2022-11-07T15:32:41.011Z,1.80
2022-11-07T15:38:05.951Z,6.35
2022-11-07T15:40:33.167Z,4.82
2022-11-07T15:42:59.884Z,1.73
2022-11-07T15:45:26.708Z,1.17
2022-11-07T15:47:53.398Z,1.35
2022-11-07T15:50:24.320Z,0.73
2022-11-07T15:52:52.880Z,7.50
2022-11-07T15:55:21.838Z,5.90
2022-11-07T15:57:51.679Z,2.65
2022-11-07T16:00:21.454Z,2.08
2022-11-07T16:02:48.349Z,5.70
2022-11-07T16:05:15.506Z,3.92
2022-11-07T16:07:43.469Z,3.15
2022-11-07T16:10:21.578Z,3.13
2022-11-07T16:12:49.722Z,2.25
2022-11-07T16:15:19.625Z,2.63
2022-11-07T16:17:46.943Z,1.80
2022-11-07T16:20:22.583Z,2.85
2022-11-07T16:22:50.496Z,1.50
2022-11-07T16:25:22.407Z,3.65
2022-11-07T16:27:55.263Z,3.45
2022-11-07T16:30:22.645Z,2.45
2022-11-07T16:32:49.348Z,3.85
2022-11-07T16:35:16.359Z,3.00
2022-11-07T16:37:43.067Z,1.50
2022-11-07T16:40:16.125Z,3.10
2022-11-07T16:42:42.807Z,2.25
2022-11-07T16:45:16.273Z,1.35
2022-11-07T16:47:44.048Z,2.35
2022-11-07T16:50:15.001Z,6.50
2022-11-07T16:52:42.009Z,3.38
2022-11-07T16:55:15.044Z,2.72
2022-11-07T16:57:41.879Z,2.67
2022-11-07T17:00:20.405Z,1.88
2022-11-07T17:02:47.362Z,2.40
2022-11-07T17:05:14.280Z,2.53
2022-11-07T17:07:41.358Z,1.65
2022-11-07T17:10:13.331Z,1.60
2022-11-07T17:12:40.015Z,1.80
2022-11-07T17:15:07.285Z,2.42
2022-11-07T17:17:34.053Z,2.42
2022-11-07T17:20:00.821Z,2.20
2022-11-07T17:22:27.608Z,3.22
2022-11-07T17:24:54.933Z,2.88
2022-11-07T17:27:24.769Z,1.75
2022-11-07T17:29:52.490Z,1.35
2022-11-07T17:32:20.098Z,1.38
2022-11-07T17:34:59.254Z,1.90
2022-11-07T17:37:35.400Z,1.98
2022-11-07T17:40:02.444Z,1.90
2022-11-07T17:42:32.554Z,1.27
2022-11-07T17:45:02.325Z,1.52
2022-11-07T17:47:30.970Z,1.73
2022-11-07T17:49:58.488Z,1.80
2022-11-07T17:52:25.331Z,1.77
2022-11-07T17:54:52.675Z,1.23
2022-11-07T17:57:19.384Z,1.25
2022-11-07T17:59:46.233Z,1.48
2022-11-07T18:02:18.572Z,1.50
2022-11-07T18:04:45.942Z,1.83
2022-11-07T18:07:12.853Z,2.10
2022-11-07T18:09:43.134Z,2.13
2022-11-07T18:12:11.091Z,1.40
2022-11-07T18:14:38.359Z,2.20
2022-11-07T18:17:05.896Z,1.55
2022-11-07T18:19:33.016Z,2.05
2022-11-07T18:21:59.760Z,1.17
2022-11-07T18:24:26.523Z,1.60
2022-11-07T18:26:53.547Z,1.35
2022-11-07T18:29:20.414Z,1.73
2022-11-07T18:31:47.413Z,1.45
2022-11-07T18:34:14.522Z,1.63
2022-11-07T18:36:43.046Z,1.77
2022-11-07T18:39:14.985Z,2.15
2022-11-07T18:41:42.365Z,1.67
2022-11-07T18:44:10.680Z,2.22
2022-11-07T18:46:38.158Z,1.75
2022-11-07T18:49:05.882Z,1.92
2022-11-07T18:51:33.672Z,1.77
2022-11-07T18:54:02.744Z,2.50
2022-11-07T18:56:30.071Z,2.20
2022-11-07T18:58:57.219Z,2.63
2022-11-07T19:01:28.126Z,1.45
2022-11-07T19:03:57.323Z,2.22
2022-11-07T19:06:25.854Z,2.08
2022-11-07T19:08:52.617Z,1.67
2022-11-07T19:11:25.352Z,1.98
2022-11-07T19:13:53.457Z,1.75
2022-11-07T19:16:22.154Z,2.35
2022-11-07T19:18:50.063Z,2.42
2022-11-07T19:21:20.550Z,2.50
2022-11-07T19:23:48.192Z,1.90
2022-11-07T19:26:16.214Z,2.00
2022-11-07T19:28:42.968Z,1.88
2022-11-07T19:31:12.804Z,1.77
2022-11-07T19:33:43.301Z,1.35
2022-11-07T19:36:19.854Z,1.60
2022-11-07T19:38:47.492Z,2.03
2022-11-07T19:41:15.865Z,2.25
2022-11-07T19:43:43.762Z,2.28
2022-11-07T19:46:18.057Z,1.45
2022-11-07T19:48:44.918Z,2.38
2022-11-07T19:51:20.954Z,3.75
2022-11-07T19:53:55.295Z,2.78
2022-11-07T19:56:23.666Z,4.10
2022-11-07T19:58:50.860Z,2.60
2022-11-07T20:01:20.579Z,3.60
2022-11-07T20:03:49.720Z,2.72
2022-11-07T20:06:18.978Z,3.22
2022-11-07T20:08:46.328Z,4.30
2022-11-07T20:11:18.547Z,3.25
2022-11-07T20:13:45.842Z,6.20
2022-11-07T20:16:12.897Z,4.03
2022-11-07T20:18:40.671Z,3.53
2022-11-07T20:21:12.825Z,4.68
2022-11-07T20:23:40.964Z,5.18
2022-11-07T20:26:10.687Z,4.03
2022-11-07T20:28:37.746Z,4.35
2022-11-07T20:31:12.422Z,3.65
2022-11-07T20:33:39.468Z,2.85
2022-11-07T20:36:09.241Z,4.72
2022-11-07T20:38:36.572Z,4.35
2022-11-07T20:41:04.369Z,3.95
2022-11-07T20:43:32.324Z,4.80
2022-11-07T20:46:13.416Z,4.40
2022-11-07T20:48:40.656Z,2.92
2022-11-07T20:51:12.808Z,3.92
2022-11-07T20:53:41.082Z,2.78
2022-11-07T20:56:10.393Z,2.60
2022-11-07T20:58:39.330Z,4.40
2022-11-07T21:01:07.997Z,3.65
2022-11-07T21:03:35.151Z,4.07
2022-11-07T21:06:01.894Z,2.33
2022-11-07T21:08:30.797Z,2.55
2022-11-07T21:11:01.433Z,3.83
2022-11-07T21:13:28.152Z,3.15
2022-11-07T21:15:54.926Z,4.03
2022-11-07T21:18:21.655Z,3.08
2022-11-07T21:20:48.387Z,2.05
2022-11-07T21:23:15.955Z,3.28
2022-11-07T21:25:45.728Z,2.58
2022-11-07T21:28:17.402Z,2.88
2022-11-07T21:31:05.182Z,2.40
2022-11-07T21:33:32.622Z,3.33
2022-11-07T21:35:59.456Z,2.63
2022-11-07T21:38:26.370Z,2.55
2022-11-07T21:40:53.497Z,2.85
2022-11-07T21:43:20.486Z,2.28
2022-11-07T21:45:47.312Z,2.15
2022-11-07T21:48:13.968Z,1.88
2022-11-07T21:50:45.468Z,2.60
2022-11-07T21:53:12.530Z,2.22
2022-11-07T21:55:39.283Z,2.92
2022-11-07T21:58:06.004Z,2.53
2022-11-07T22:00:36.524Z,2.70
2022-11-07T22:03:04.254Z,2.10
2022-11-07T22:05:31.150Z,2.47
2022-11-07T22:07:57.963Z,2.58
2022-11-07T22:10:24.695Z,2.75
2022-11-07T22:12:52.425Z,2.03
2022-11-07T22:15:19.168Z,2.05
2022-11-07T22:17:45.838Z,2.33
2022-11-07T22:20:12.957Z,2.20
2022-11-07T22:22:39.675Z,2.38
2022-11-07T22:25:06.873Z,2.15
2022-11-07T22:27:33.781Z,2.35
2022-11-07T22:30:00.556Z,2.10
2022-11-07T22:32:27.235Z,1.88
2022-11-07T22:34:53.967Z,2.30
2022-11-07T22:37:20.696Z,2.40
2022-11-07T22:39:47.405Z,1.63
2022-11-07T22:42:15.016Z,2.30
2022-11-07T22:44:44.077Z,2.53
2022-11-07T22:47:10.899Z,2.70
2022-11-07T22:49:37.592Z,1.58
2022-11-07T22:52:04.523Z,1.90
2022-11-07T22:54:31.293Z,2.10
2022-11-07T22:56:58.001Z,2.75
2022-11-07T22:59:24.803Z,2.50
2022-11-07T23:01:51.806Z,2.08
2022-11-07T23:04:18.671Z,1.73
2022-11-07T23:06:45.466Z,2.42
2022-11-07T23:09:14.222Z,2.42
2022-11-07T23:11:46.446Z,1.80
2022-11-07T23:14:15.675Z,1.70
2022-11-07T23:16:51.509Z,2.28
2022-11-07T23:19:20.941Z,2.08
2022-11-07T23:21:48.845Z,2.90
2022-11-07T23:24:15.588Z,2.70
2022-11-07T23:26:42.420Z,2.33
2022-11-07T23:29:13.207Z,2.75
2022-11-07T23:31:41.211Z,1.98
2022-11-07T23:34:08.022Z,2.70
2022-11-07T23:36:34.913Z,2.30
2022-11-07T23:39:07.082Z,2.33
2022-11-07T23:41:34.231Z,2.08
2022-11-07T23:44:01.060Z,1.90
2022-11-07T23:46:46.215Z,1.50
2022-11-07T23:49:31.488Z,1.67
2022-11-07T23:51:58.327Z,1.35
2022-11-07T23:54:43.736Z,1.63
2022-11-07T23:57:10.602Z,1.85
2022-11-07T23:59:55.797Z,1.73
